PWSweather.com
Personal Weather Stations
Station Observations
GRD01
Warsaw, LesznoPL 05-084

WarsawLesznoPL 05-084

Lat: 52.257404, Lon: 20.564847

Elevation: 298

Station Type: WH3080

http://pogoda.kampinos.waw.pl

High Low Average
Temperature 88.7°F31.5°C 63.0°F17.2°C 76.5°F24.7°C
Dew Point 61.1°F16.2°C 53.5°F11.9°C 57.6°F14.2°C
Winds 11.4 mph 18.3 kmh 0.7 mph 1.1 kmh 5.0 mph SE8.0 kmh SE
Wind Gusts 19.7 mph31.7 kmh 3.8 mph6.1 kmh 9.0 mph14.5 kmh
Humidity 72% 36% 54%
Pressure 30.48 in1032.2 mb 30.29 in1025.7 mb -
Precipitation 0.00 in0.0 mm - -
Hour Temp Dew Point Humidity Winds Wind Gusts Pressure Precip Precip Rate Daily Precip Total
12:00 AM 68.4°F20.2°C 54.8°F12.7°C 62% 2.2 mph SE3.5 kmh SE 6.9 mph11.1 kmh 30.49 in1032.5 mb 0.00 in0.0 mm 0.00 in0.0 mm 0.00 in0.0 mm
12:05 AM 68.4°F20.2°C 54.8°F12.7°C 62% 3.8 mph E6.1 kmh E 6.0 mph9.7 kmh 30.05 in1017.6 mb 0.00 in0.0 mm 0.00 in0.0 mm 0.00 in0.0 mm
12:15 AM 68.0°F20.0°C 54.9°F12.7°C 63% 4.5 mph ESE7.2 kmh ESE 6.0 mph9.7 kmh 30.50 in1032.8 mb 0.00 in0.0 mm 0.00 in0.0 mm 0.00 in0.0 mm
12:30 AM 67.6°F19.8°C 54.6°F12.6°C 63% 2.2 mph E3.5 kmh E 5.4 mph8.7 kmh 30.49 in1032.5 mb 0.00 in0.0 mm 0.00 in0.0 mm 0.00 in0.0 mm
12:35 AM 67.6°F19.8°C 54.6°F12.6°C 63% 1.6 mph NE2.6 kmh NE 2.2 mph3.5 kmh 30.05 in1017.6 mb 0.00 in0.0 mm 0.00 in0.0 mm 0.00 in0.0 mm
12:45 AM 67.3°F19.6°C 54.7°F12.6°C 64% 2.2 mph ESE3.5 kmh ESE 5.4 mph8.7 kmh 30.48 in1032.2 mb 0.00 in0.0 mm 0.00 in0.0 mm 0.00 in0.0 mm
01:00 AM 66.9°F19.4°C 54.3°F12.4°C 64% 2.2 mph SE3.5 kmh SE 4.5 mph7.2 kmh 30.48 in1032.2 mb 0.00 in0.0 mm 0.00 in0.0 mm 0.00 in0.0 mm
01:05 AM 66.9°F19.4°C 54.3°F12.4°C 64% 2.2 mph SE3.5 kmh SE 3.8 mph6.1 kmh 30.04 in1017.3 mb 0.00 in0.0 mm 0.00 in0.0 mm 0.00 in0.0 mm
01:15 AM 66.6°F19.2°C 54.4°F12.4°C 65% 3.8 mph SE6.1 kmh SE 6.0 mph9.7 kmh 30.48 in1032.2 mb 0.00 in0.0 mm 0.00 in0.0 mm 0.00 in0.0 mm
01:30 AM 66.2°F19.0°C 54.5°F12.5°C 66% 2.2 mph ESE3.5 kmh ESE 5.4 mph8.7 kmh 30.48 in1032.2 mb 0.00 in0.0 mm 0.00 in0.0 mm 0.00 in0.0 mm
01:35 AM 66.2°F19.0°C 54.5°F12.5°C 66% 3.1 mph SE5.0 kmh SE 3.8 mph6.1 kmh 30.04 in1017.3 mb 0.00 in0.0 mm 0.00 in0.0 mm 0.00 in0.0 mm
01:45 AM 66.0°F18.9°C 54.7°F12.6°C 67% 1.6 mph SE2.6 kmh SE 6.0 mph9.7 kmh 30.48 in1032.2 mb 0.00 in0.0 mm 0.00 in0.0 mm 0.00 in0.0 mm
02:00 AM 65.5°F18.6°C 54.6°F12.6°C 68% 1.6 mph SE2.6 kmh SE 5.4 mph8.7 kmh 30.48 in1032.2 mb 0.00 in0.0 mm 0.00 in0.0 mm 0.00 in0.0 mm
02:05 AM 65.7°F18.7°C 54.4°F12.4°C 67% 3.8 mph SE6.1 kmh SE 4.5 mph7.2 kmh 30.04 in1017.3 mb 0.00 in0.0 mm 0.00 in0.0 mm 0.00 in0.0 mm
02:15 AM 65.3°F18.5°C 54.5°F12.5°C 68% 0.7 mph SE1.1 kmh SE 6.0 mph9.7 kmh 30.47 in1031.8 mb 0.00 in0.0 mm 0.00 in0.0 mm 0.00 in0.0 mm
02:30 AM 64.9°F18.3°C 54.5°F12.5°C 69% 3.8 mph ESE6.1 kmh ESE 6.9 mph11.1 kmh 30.47 in1031.8 mb 0.00 in0.0 mm 0.00 in0.0 mm 0.00 in0.0 mm
02:35 AM 64.9°F18.3°C 54.5°F12.5°C 69% 3.1 mph E5.0 kmh E 5.4 mph8.7 kmh 30.02 in1016.6 mb 0.00 in0.0 mm 0.00 in0.0 mm 0.00 in0.0 mm
02:45 AM 64.9°F18.3°C 54.1°F12.3°C 68% 4.5 mph ESE7.2 kmh ESE 7.6 mph12.2 kmh 30.46 in1031.5 mb 0.00 in0.0 mm 0.00 in0.0 mm 0.00 in0.0 mm
03:00 AM 64.6°F18.1°C 54.2°F12.3°C 69% 3.8 mph ESE6.1 kmh ESE 5.4 mph8.7 kmh 30.46 in1031.5 mb 0.00 in0.0 mm 0.00 in0.0 mm 0.00 in0.0 mm
03:05 AM 64.8°F18.2°C 53.9°F12.2°C 68% 3.1 mph E5.0 kmh E 3.8 mph6.1 kmh 30.01 in1016.3 mb 0.00 in0.0 mm 0.00 in0.0 mm 0.00 in0.0 mm
03:15 AM 64.4°F18.0°C 54.0°F12.2°C 69% 3.8 mph ESE6.1 kmh ESE 6.9 mph11.1 kmh 30.45 in1031.2 mb 0.00 in0.0 mm 0.00 in0.0 mm 0.00 in0.0 mm
03:30 AM 64.2°F17.9°C 53.8°F12.1°C 69% 3.8 mph E6.1 kmh E 6.9 mph11.1 kmh 30.45 in1031.2 mb 0.00 in0.0 mm 0.00 in0.0 mm 0.00 in0.0 mm
03:35 AM 64.2°F17.9°C 53.8°F12.1°C 69% 3.1 mph E5.0 kmh E 4.5 mph7.2 kmh 30.00 in1015.9 mb 0.00 in0.0 mm 0.00 in0.0 mm 0.00 in0.0 mm
03:45 AM 63.9°F17.7°C 53.5°F11.9°C 69% 3.1 mph ESE5.0 kmh ESE 6.0 mph9.7 kmh 30.44 in1030.8 mb 0.00 in0.0 mm 0.00 in0.0 mm 0.00 in0.0 mm
04:00 AM 63.7°F17.6°C 53.7°F12.1°C 70% 4.5 mph E7.2 kmh E 6.9 mph11.1 kmh 30.44 in1030.8 mb 0.00 in0.0 mm 0.00 in0.0 mm 0.00 in0.0 mm
04:05 AM 63.7°F17.6°C 53.3°F11.8°C 69% 1.6 mph E2.6 kmh E 3.1 mph5.0 kmh 30.00 in1015.9 mb 0.00 in0.0 mm 0.00 in0.0 mm 0.00 in0.0 mm
04:15 AM 63.5°F17.5°C 53.5°F11.9°C 70% 3.1 mph E5.0 kmh E 5.4 mph8.7 kmh 30.44 in1030.8 mb 0.00 in0.0 mm 0.00 in0.0 mm 0.00 in0.0 mm
04:30 AM 63.3°F17.4°C 54.1°F12.3°C 72% 2.2 mph ESE3.5 kmh ESE 5.4 mph8.7 kmh 30.44 in1030.8 mb 0.00 in0.0 mm 0.00 in0.0 mm 0.00 in0.0 mm
04:35 AM 63.3°F17.4°C 54.1°F12.3°C 72% 1.6 mph E2.6 kmh E 2.2 mph3.5 kmh 29.99 in1015.6 mb 0.00 in0.0 mm 0.00 in0.0 mm 0.00 in0.0 mm
04:45 AM 63.0°F17.2°C 53.8°F12.1°C 72% 2.2 mph ESE3.5 kmh ESE 5.4 mph8.7 kmh 30.44 in1030.8 mb 0.00 in0.0 mm 0.00 in0.0 mm 0.00 in0.0 mm
05:00 AM 63.0°F17.2°C 53.8°F12.1°C 72% 3.1 mph ESE5.0 kmh ESE 5.4 mph8.7 kmh 30.43 in1030.5 mb 0.00 in0.0 mm 0.00 in0.0 mm 0.00 in0.0 mm
05:05 AM 63.0°F17.2°C 53.8°F12.1°C 72% 4.5 mph E7.2 kmh E 5.4 mph8.7 kmh 30.00 in1015.9 mb 0.00 in0.0 mm 0.00 in0.0 mm 0.00 in0.0 mm
05:15 AM 63.0°F17.2°C 53.8°F12.1°C 72% 3.1 mph SE5.0 kmh SE 6.9 mph11.1 kmh 30.43 in1030.5 mb 0.00 in0.0 mm 0.00 in0.0 mm 0.00 in0.0 mm
05:30 AM 63.1°F17.3°C 54.0°F12.2°C 72% 3.8 mph ESE6.1 kmh ESE 5.4 mph8.7 kmh 30.43 in1030.5 mb 0.00 in0.0 mm 0.00 in0.0 mm 0.00 in0.0 mm
05:35 AM 63.1°F17.3°C 54.0°F12.2°C 72% 4.5 mph E7.2 kmh E 5.4 mph8.7 kmh 29.99 in1015.6 mb 0.00 in0.0 mm 0.00 in0.0 mm 0.00 in0.0 mm
05:45 AM 63.5°F17.5°C 53.5°F11.9°C 70% 1.6 mph SE2.6 kmh SE 5.4 mph8.7 kmh 30.43 in1030.5 mb 0.00 in0.0 mm 0.00 in0.0 mm 0.00 in0.0 mm
06:00 AM 64.0°F17.8°C 54.1°F12.3°C 70% 5.4 mph SE8.7 kmh SE 6.9 mph11.1 kmh 30.43 in1030.5 mb 0.00 in0.0 mm 0.00 in0.0 mm 0.00 in0.0 mm
06:05 AM 64.0°F17.8°C 54.1°F12.3°C 70% 3.8 mph SE6.1 kmh SE 5.4 mph8.7 kmh 29.99 in1015.6 mb 0.00 in0.0 mm 0.00 in0.0 mm 0.00 in0.0 mm
06:15 AM 64.8°F18.2°C 53.9°F12.2°C 68% 6.0 mph ESE9.7 kmh ESE 12.1 mph19.5 kmh 30.43 in1030.5 mb 0.00 in0.0 mm 0.00 in0.0 mm 0.00 in0.0 mm
06:30 AM 65.7°F18.7°C 54.4°F12.4°C 67% 3.8 mph SE6.1 kmh SE 9.2 mph14.8 kmh 30.42 in1030.1 mb 0.00 in0.0 mm 0.00 in0.0 mm 0.00 in0.0 mm
06:35 AM 65.7°F18.7°C 54.8°F12.7°C 68% 5.4 mph SE8.7 kmh SE 6.9 mph11.1 kmh 29.98 in1015.2 mb 0.00 in0.0 mm 0.00 in0.0 mm 0.00 in0.0 mm
06:45 AM 66.9°F19.4°C 55.2°F12.9°C 66% 3.8 mph SE6.1 kmh SE 9.2 mph14.8 kmh 30.42 in1030.1 mb 0.00 in0.0 mm 0.00 in0.0 mm 0.00 in0.0 mm
07:00 AM 67.6°F19.8°C 55.5°F13.1°C 65% 3.8 mph ESE6.1 kmh ESE 8.3 mph13.4 kmh 30.43 in1030.5 mb 0.00 in0.0 mm 0.00 in0.0 mm 0.00 in0.0 mm
07:05 AM 67.6°F19.8°C 55.5°F13.1°C 65% 3.8 mph E6.1 kmh E 7.6 mph12.2 kmh 29.98 in1015.2 mb 0.00 in0.0 mm 0.00 in0.0 mm 0.00 in0.0 mm
07:15 AM 69.1°F20.6°C 55.5°F13.1°C 62% 7.6 mph ESE12.2 kmh ESE 11.4 mph18.3 kmh 30.42 in1030.1 mb 0.00 in0.0 mm 0.00 in0.0 mm 0.00 in0.0 mm
07:30 AM 70.7°F21.5°C 57.0°F13.9°C 62% 5.4 mph SE8.7 kmh SE 9.8 mph15.8 kmh 30.41 in1029.8 mb 0.00 in0.0 mm 0.00 in0.0 mm 0.00 in0.0 mm
07:35 AM 70.5°F21.4°C 56.9°F13.8°C 62% 3.8 mph SE6.1 kmh SE 5.4 mph8.7 kmh 29.97 in1014.9 mb 0.00 in0.0 mm 0.00 in0.0 mm 0.00 in0.0 mm
07:45 AM 72.1°F22.3°C 57.9°F14.4°C 61% 4.5 mph SE7.2 kmh SE 10.7 mph17.2 kmh 30.42 in1030.1 mb 0.00 in0.0 mm 0.00 in0.0 mm 0.00 in0.0 mm
08:00 AM 73.4°F23.0°C 56.2°F13.4°C 55% 3.8 mph SE6.1 kmh SE 9.8 mph15.8 kmh 30.41 in1029.8 mb 0.00 in0.0 mm 0.00 in0.0 mm 0.00 in0.0 mm
08:05 AM 73.2°F22.9°C 56.1°F13.4°C 55% 5.4 mph E8.7 kmh E 7.6 mph12.2 kmh 29.97 in1014.9 mb 0.00 in0.0 mm 0.00 in0.0 mm 0.00 in0.0 mm
08:15 AM 75.2°F24.0°C 57.4°F14.1°C 54% 6.0 mph SE9.7 kmh SE 9.8 mph15.8 kmh 30.41 in1029.8 mb 0.00 in0.0 mm 0.00 in0.0 mm 0.00 in0.0 mm
08:30 AM 76.6°F24.8°C 57.2°F14.0°C 51% 6.9 mph ESE11.1 kmh ESE 12.1 mph19.5 kmh 30.41 in1029.8 mb 0.00 in0.0 mm 0.00 in0.0 mm 0.00 in0.0 mm
08:35 AM 76.5°F24.7°C 57.0°F13.9°C 51% 5.4 mph E8.7 kmh E 7.6 mph12.2 kmh 29.97 in1014.9 mb 0.00 in0.0 mm 0.00 in0.0 mm 0.00 in0.0 mm
08:45 AM 77.7°F25.4°C 57.0°F13.9°C 49% 6.9 mph SSE11.1 kmh SSE 15.2 mph24.5 kmh 30.41 in1029.8 mb 0.00 in0.0 mm 0.00 in0.0 mm 0.00 in0.0 mm
09:00 AM 79.0°F26.1°C 57.6°F14.2°C 48% 6.9 mph SSE11.1 kmh SSE 13.6 mph21.9 kmh 30.40 in1029.5 mb 0.00 in0.0 mm 0.00 in0.0 mm 0.00 in0.0 mm
09:05 AM 78.8°F26.0°C 58.0°F14.4°C 49% 7.6 mph SE12.2 kmh SE 12.1 mph19.5 kmh 29.96 in1014.6 mb 0.00 in0.0 mm 0.00 in0.0 mm 0.00 in0.0 mm
09:15 AM 79.5°F26.4°C 57.5°F14.2°C 47% 7.6 mph SE12.2 kmh SE 13.0 mph20.9 kmh 30.40 in1029.5 mb 0.00 in0.0 mm 0.00 in0.0 mm 0.00 in0.0 mm
09:30 AM 81.1°F27.3°C 59.0°F15.0°C 47% 4.5 mph SSE7.2 kmh SSE 13.0 mph20.9 kmh 30.40 in1029.5 mb 0.00 in0.0 mm 0.00 in0.0 mm 0.00 in0.0 mm
09:35 AM 80.8°F27.1°C 58.7°F14.8°C 47% 3.1 mph S5.0 kmh S 4.5 mph7.2 kmh 29.96 in1014.6 mb 0.00 in0.0 mm 0.00 in0.0 mm 0.00 in0.0 mm
09:45 AM 82.4°F28.0°C 56.3°F13.5°C 41% 9.2 mph SE14.8 kmh SE 15.9 mph25.6 kmh 30.40 in1029.5 mb 0.00 in0.0 mm 0.00 in0.0 mm 0.00 in0.0 mm
10:00 AM 82.4°F28.0°C 56.3°F13.5°C 41% 6.9 mph SE11.1 kmh SE 15.2 mph24.5 kmh 30.40 in1029.5 mb 0.00 in0.0 mm 0.00 in0.0 mm 0.00 in0.0 mm
10:05 AM 82.4°F28.0°C 56.3°F13.5°C 41% 9.2 mph SW14.8 kmh SW 13.6 mph21.9 kmh 29.95 in1014.2 mb 0.00 in0.0 mm 0.00 in0.0 mm 0.00 in0.0 mm
10:15 AM 82.8°F28.2°C 56.7°F13.7°C 41% 6.9 mph SE11.1 kmh SE 13.6 mph21.9 kmh 30.38 in1028.8 mb 0.00 in0.0 mm 0.00 in0.0 mm 0.00 in0.0 mm
10:30 AM 83.3°F28.5°C 56.5°F13.6°C 40% 11.4 mph SSE18.3 kmh SSE 17.4 mph28.0 kmh 30.38 in1028.8 mb 0.00 in0.0 mm 0.00 in0.0 mm 0.00 in0.0 mm
10:35 AM 83.3°F28.5°C 57.1°F13.9°C 41% 4.5 mph SE7.2 kmh SE 10.7 mph17.2 kmh 29.94 in1013.9 mb 0.00 in0.0 mm 0.00 in0.0 mm 0.00 in0.0 mm
10:45 AM 83.8°F28.8°C 57.6°F14.2°C 41% 6.9 mph SE11.1 kmh SE 16.8 mph27.0 kmh 30.38 in1028.8 mb 0.00 in0.0 mm 0.00 in0.0 mm 0.00 in0.0 mm
11:00 AM 84.0°F28.9°C 57.8°F14.3°C 41% 9.2 mph SSE14.8 kmh SSE 19.7 mph31.7 kmh 30.37 in1028.4 mb 0.00 in0.0 mm 0.00 in0.0 mm 0.00 in0.0 mm
11:05 AM 84.0°F28.9°C 57.8°F14.3°C 41% 9.8 mph S15.8 kmh S 11.4 mph18.3 kmh 29.93 in1013.5 mb 0.00 in0.0 mm 0.00 in0.0 mm 0.00 in0.0 mm
11:15 AM 84.9°F29.4°C 58.6°F14.8°C 41% 9.8 mph SE15.8 kmh SE 15.2 mph24.5 kmh 30.37 in1028.4 mb 0.00 in0.0 mm 0.00 in0.0 mm 0.00 in0.0 mm
11:30 AM 84.9°F29.4°C 58.6°F14.8°C 41% 11.4 mph SE18.3 kmh SE 16.8 mph27.0 kmh 30.37 in1028.4 mb 0.00 in0.0 mm 0.00 in0.0 mm 0.00 in0.0 mm
11:35 AM 84.9°F29.4°C 58.6°F14.8°C 41% 8.3 mph E13.4 kmh E 11.4 mph18.3 kmh 29.92 in1013.2 mb 0.00 in0.0 mm 0.00 in0.0 mm 0.00 in0.0 mm
11:45 AM 85.3°F29.6°C 58.2°F14.6°C 40% 11.4 mph SE18.3 kmh SE 16.8 mph27.0 kmh 30.36 in1028.1 mb 0.00 in0.0 mm 0.00 in0.0 mm 0.00 in0.0 mm
12:00 PM 85.8°F29.9°C 58.7°F14.8°C 40% 5.4 mph S8.7 kmh S 14.5 mph23.3 kmh 30.36 in1028.1 mb 0.00 in0.0 mm 0.00 in0.0 mm 0.00 in0.0 mm
12:05 PM 85.8°F29.9°C 58.7°F14.8°C 40% 12.1 mph SE19.5 kmh SE 14.5 mph23.3 kmh 29.91 in1012.9 mb 0.00 in0.0 mm 0.00 in0.0 mm 0.00 in0.0 mm
12:15 PM 86.9°F30.5°C 59.0°F15.0°C 39% 10.7 mph SSE17.2 kmh SSE 15.2 mph24.5 kmh 30.35 in1027.8 mb 0.00 in0.0 mm 0.00 in0.0 mm 0.00 in0.0 mm
12:30 PM 87.4°F30.8°C 58.0°F14.4°C 37% 5.4 mph SSE8.7 kmh SSE 13.0 mph20.9 kmh 30.36 in1028.1 mb 0.00 in0.0 mm 0.00 in0.0 mm 0.00 in0.0 mm
12:35 PM 87.4°F30.8°C 58.7°F14.8°C 38% 6.0 mph SW9.7 kmh SW 8.3 mph13.4 kmh 29.91 in1012.9 mb 0.00 in0.0 mm 0.00 in0.0 mm 0.00 in0.0 mm
12:45 PM 87.8°F31.0°C 57.5°F14.2°C 36% 8.3 mph S13.4 kmh S 15.2 mph24.5 kmh 30.35 in1027.8 mb 0.00 in0.0 mm 0.00 in0.0 mm 0.00 in0.0 mm
01:00 PM 87.6°F30.9°C 58.1°F14.5°C 37% 4.5 mph SSE7.2 kmh SSE 10.7 mph17.2 kmh 30.34 in1027.4 mb 0.00 in0.0 mm 0.00 in0.0 mm 0.00 in0.0 mm
01:05 PM 87.6°F30.9°C 58.1°F14.5°C 37% 4.5 mph SE7.2 kmh SE 7.6 mph12.2 kmh 29.91 in1012.9 mb 0.00 in0.0 mm 0.00 in0.0 mm 0.00 in0.0 mm
01:15 PM 87.6°F30.9°C 58.1°F14.5°C 37% 6.0 mph SSE9.7 kmh SSE 15.2 mph24.5 kmh 30.34 in1027.4 mb 0.00 in0.0 mm 0.00 in0.0 mm 0.00 in0.0 mm
01:30 PM 88.3°F31.3°C 58.0°F14.4°C 36% 4.5 mph S7.2 kmh S 15.2 mph24.5 kmh 30.33 in1027.1 mb 0.00 in0.0 mm 0.00 in0.0 mm 0.00 in0.0 mm
01:35 PM 88.3°F31.3°C 58.0°F14.4°C 36% 8.3 mph S13.4 kmh S 11.4 mph18.3 kmh 29.89 in1012.2 mb 0.00 in0.0 mm 0.00 in0.0 mm 0.00 in0.0 mm
01:45 PM 88.2°F31.2°C 59.4°F15.2°C 38% 5.4 mph SE8.7 kmh SE 13.6 mph21.9 kmh 30.32 in1026.8 mb 0.00 in0.0 mm 0.00 in0.0 mm 0.00 in0.0 mm
02:00 PM 88.5°F31.4°C 58.9°F14.9°C 37% 8.3 mph SSE13.4 kmh SSE 13.0 mph20.9 kmh 30.32 in1026.8 mb 0.00 in0.0 mm 0.00 in0.0 mm 0.00 in0.0 mm
02:05 PM 88.5°F31.4°C 59.7°F15.4°C 38% 5.4 mph SW8.7 kmh SW 6.9 mph11.1 kmh 29.88 in1011.9 mb 0.00 in0.0 mm 0.00 in0.0 mm 0.00 in0.0 mm
02:15 PM 88.3°F31.3°C 58.8°F14.9°C 37% 7.6 mph S12.2 kmh S 13.0 mph20.9 kmh 30.32 in1026.8 mb 0.00 in0.0 mm 0.00 in0.0 mm 0.00 in0.0 mm
02:30 PM 88.7°F31.5°C 59.1°F15.1°C 37% 6.9 mph S11.1 kmh S 13.6 mph21.9 kmh 30.32 in1026.8 mb 0.00 in0.0 mm 0.00 in0.0 mm 0.00 in0.0 mm
02:35 PM 88.7°F31.5°C 59.1°F15.1°C 37% 5.4 mph SE8.7 kmh SE 7.6 mph12.2 kmh 29.88 in1011.9 mb 0.00 in0.0 mm 0.00 in0.0 mm 0.00 in0.0 mm
02:45 PM 88.7°F31.5°C 58.3°F14.6°C 36% 5.4 mph SE8.7 kmh SE 12.1 mph19.5 kmh 30.31 in1026.4 mb 0.00 in0.0 mm 0.00 in0.0 mm 0.00 in0.0 mm
03:00 PM 88.5°F31.4°C 58.9°F14.9°C 37% 9.8 mph SSE15.8 kmh SSE 13.0 mph20.9 kmh 30.32 in1026.8 mb 0.00 in0.0 mm 0.00 in0.0 mm 0.00 in0.0 mm
03:05 PM 88.5°F31.4°C 58.9°F14.9°C 37% 7.6 mph SE12.2 kmh SE 9.2 mph14.8 kmh 29.86 in1011.2 mb 0.00 in0.0 mm 0.00 in0.0 mm 0.00 in0.0 mm
03:15 PM 88.5°F31.4°C 58.9°F14.9°C 37% 10.7 mph SE17.2 kmh SE 13.6 mph21.9 kmh 30.31 in1026.4 mb 0.00 in0.0 mm 0.00 in0.0 mm 0.00 in0.0 mm
03:30 PM 88.5°F31.4°C 59.7°F15.4°C 38% 3.1 mph SSE5.0 kmh SSE 13.6 mph21.9 kmh 30.31 in1026.4 mb 0.00 in0.0 mm 0.00 in0.0 mm 0.00 in0.0 mm
03:35 PM 88.3°F31.3°C 58.8°F14.9°C 37% 3.1 mph SE5.0 kmh SE 3.8 mph6.1 kmh 29.87 in1011.5 mb 0.00 in0.0 mm 0.00 in0.0 mm 0.00 in0.0 mm
03:45 PM 88.5°F31.4°C 60.4°F15.8°C 39% 4.5 mph SE7.2 kmh SE 14.5 mph23.3 kmh 30.30 in1026.1 mb 0.00 in0.0 mm 0.00 in0.0 mm 0.00 in0.0 mm
04:00 PM 88.2°F31.2°C 59.4°F15.2°C 38% 8.3 mph SSE13.4 kmh SSE 13.0 mph20.9 kmh 30.31 in1026.4 mb 0.00 in0.0 mm 0.00 in0.0 mm 0.00 in0.0 mm
04:05 PM 88.2°F31.2°C 60.1°F15.6°C 39% 7.6 mph SE12.2 kmh SE 13.0 mph20.9 kmh 29.86 in1011.2 mb 0.00 in0.0 mm 0.00 in0.0 mm 0.00 in0.0 mm
04:15 PM 87.6°F30.9°C 59.6°F15.3°C 39% 3.8 mph S6.1 kmh S 13.0 mph20.9 kmh 30.30 in1026.1 mb 0.00 in0.0 mm 0.00 in0.0 mm 0.00 in0.0 mm
04:30 PM 87.3°F30.7°C 60.0°F15.6°C 40% 5.4 mph SSE8.7 kmh SSE 11.4 mph18.3 kmh 30.30 in1026.1 mb 0.00 in0.0 mm 0.00 in0.0 mm 0.00 in0.0 mm
04:35 PM 87.3°F30.7°C 60.0°F15.6°C 40% 5.4 mph SE8.7 kmh SE 7.6 mph12.2 kmh 29.86 in1011.2 mb 0.00 in0.0 mm 0.00 in0.0 mm 0.00 in0.0 mm
04:45 PM 86.7°F30.4°C 59.5°F15.3°C 40% 3.1 mph S5.0 kmh S 9.8 mph15.8 kmh 30.30 in1026.1 mb 0.00 in0.0 mm 0.00 in0.0 mm 0.00 in0.0 mm
05:00 PM 86.0°F30.0°C 59.6°F15.3°C 41% 3.8 mph SSE6.1 kmh SSE 9.8 mph15.8 kmh 30.29 in1025.7 mb 0.00 in0.0 mm 0.00 in0.0 mm 0.00 in0.0 mm
05:05 PM 86.2°F30.1°C 59.7°F15.4°C 41% 4.5 mph S7.2 kmh S 7.6 mph12.2 kmh 29.85 in1010.8 mb 0.00 in0.0 mm 0.00 in0.0 mm 0.00 in0.0 mm
05:15 PM 85.3°F29.6°C 58.9°F14.9°C 41% 3.1 mph SSE5.0 kmh SSE 10.7 mph17.2 kmh 30.29 in1025.7 mb 0.00 in0.0 mm 0.00 in0.0 mm 0.00 in0.0 mm
05:30 PM 84.4°F29.1°C 58.8°F14.9°C 42% 3.8 mph SSE6.1 kmh SSE 6.9 mph11.1 kmh 30.29 in1025.7 mb 0.00 in0.0 mm 0.00 in0.0 mm 0.00 in0.0 mm
05:35 PM 84.4°F29.1°C 58.8°F14.9°C 42% 2.2 mph S3.5 kmh S 3.1 mph5.0 kmh 29.84 in1010.5 mb 0.00 in0.0 mm 0.00 in0.0 mm 0.00 in0.0 mm
05:45 PM 83.5°F28.6°C 58.6°F14.8°C 43% 4.5 mph SSE7.2 kmh SSE 6.9 mph11.1 kmh 30.29 in1025.7 mb 0.00 in0.0 mm 0.00 in0.0 mm 0.00 in0.0 mm
06:00 PM 82.6°F28.1°C 58.5°F14.7°C 44% 2.2 mph SE3.5 kmh SE 5.4 mph8.7 kmh 30.29 in1025.7 mb 0.00 in0.0 mm 0.00 in0.0 mm 0.00 in0.0 mm
06:05 PM 82.8°F28.2°C 58.6°F14.8°C 44% 2.2 mph SE3.5 kmh SE 3.8 mph6.1 kmh 29.85 in1010.8 mb 0.00 in0.0 mm 0.00 in0.0 mm 0.00 in0.0 mm
06:15 PM 81.7°F27.6°C 58.3°F14.6°C 45% 1.6 mph SE2.6 kmh SE 6.9 mph11.1 kmh 30.29 in1025.7 mb 0.00 in0.0 mm 0.00 in0.0 mm 0.00 in0.0 mm
06:30 PM 80.8°F27.1°C 61.0°F16.1°C 51% 3.8 mph ESE6.1 kmh ESE 4.5 mph7.2 kmh 30.30 in1026.1 mb 0.00 in0.0 mm 0.00 in0.0 mm 0.00 in0.0 mm
06:35 PM 81.0°F27.2°C 61.1°F16.2°C 51% 3.8 mph SE6.1 kmh SE 4.5 mph7.2 kmh 29.85 in1010.8 mb 0.00 in0.0 mm 0.00 in0.0 mm 0.00 in0.0 mm
06:45 PM 80.1°F26.7°C 60.3°F15.7°C 51% 4.5 mph SE7.2 kmh SE 6.0 mph9.7 kmh 30.30 in1026.1 mb 0.00 in0.0 mm 0.00 in0.0 mm 0.00 in0.0 mm
07:00 PM 79.7°F26.5°C 60.5°F15.8°C 52% 5.4 mph SE8.7 kmh SE 6.0 mph9.7 kmh 30.30 in1026.1 mb 0.00 in0.0 mm 0.00 in0.0 mm 0.00 in0.0 mm
07:05 PM 79.7°F26.5°C 60.5°F15.8°C 52% 5.4 mph SE8.7 kmh SE 6.0 mph9.7 kmh 29.85 in1010.8 mb 0.00 in0.0 mm 0.00 in0.0 mm 0.00 in0.0 mm
07:15 PM 78.6°F25.9°C 60.1°F15.6°C 53% 3.8 mph SE6.1 kmh SE 8.3 mph13.4 kmh 30.30 in1026.1 mb 0.00 in0.0 mm 0.00 in0.0 mm 0.00 in0.0 mm
07:30 PM 78.1°F25.6°C 59.6°F15.3°C 53% 3.1 mph SE5.0 kmh SE 7.6 mph12.2 kmh 30.30 in1026.1 mb 0.00 in0.0 mm 0.00 in0.0 mm 0.00 in0.0 mm
07:35 PM 78.3°F25.7°C 59.7°F15.4°C 53% 4.5 mph SE7.2 kmh SE 6.0 mph9.7 kmh 29.85 in1010.8 mb 0.00 in0.0 mm 0.00 in0.0 mm 0.00 in0.0 mm
07:45 PM 77.5°F25.3°C 59.6°F15.3°C 54% 3.1 mph SE5.0 kmh SE 6.9 mph11.1 kmh 30.30 in1026.1 mb 0.00 in0.0 mm 0.00 in0.0 mm 0.00 in0.0 mm
08:00 PM 77.0°F25.0°C 59.6°F15.3°C 55% 3.8 mph SE6.1 kmh SE 5.4 mph8.7 kmh 30.31 in1026.4 mb 0.00 in0.0 mm 0.00 in0.0 mm 0.00 in0.0 mm
08:05 PM 77.0°F25.0°C 59.6°F15.3°C 55% 3.1 mph SE5.0 kmh SE 3.8 mph6.1 kmh 29.86 in1011.2 mb 0.00 in0.0 mm 0.00 in0.0 mm 0.00 in0.0 mm
08:15 PM 76.3°F24.6°C 59.9°F15.5°C 57% 1.6 mph SE2.6 kmh SE 5.4 mph8.7 kmh 30.30 in1026.1 mb 0.00 in0.0 mm 0.00 in0.0 mm 0.00 in0.0 mm
08:30 PM 75.6°F24.2°C 59.7°F15.4°C 58% 2.2 mph SE3.5 kmh SE 5.4 mph8.7 kmh 30.30 in1026.1 mb 0.00 in0.0 mm 0.00 in0.0 mm 0.00 in0.0 mm
08:35 PM 75.6°F24.2°C 59.7°F15.4°C 58% 2.2 mph SE3.5 kmh SE 3.8 mph6.1 kmh 29.85 in1010.8 mb 0.00 in0.0 mm 0.00 in0.0 mm 0.00 in0.0 mm
08:45 PM 74.8°F23.8°C 60.0°F15.6°C 60% 2.2 mph SSE3.5 kmh SSE 5.4 mph8.7 kmh 30.30 in1026.1 mb 0.00 in0.0 mm 0.00 in0.0 mm 0.00 in0.0 mm
09:00 PM 74.5°F23.6°C 59.7°F15.4°C 60% 3.1 mph SSE5.0 kmh SSE 5.4 mph8.7 kmh 30.30 in1026.1 mb 0.00 in0.0 mm 0.00 in0.0 mm 0.00 in0.0 mm
09:05 PM 74.5°F23.6°C 59.7°F15.4°C 60% 3.8 mph S6.1 kmh S 5.4 mph8.7 kmh 29.86 in1011.2 mb 0.00 in0.0 mm 0.00 in0.0 mm 0.00 in0.0 mm
09:15 PM 74.3°F23.5°C 60.0°F15.6°C 61% 2.2 mph SSE3.5 kmh SSE 4.5 mph7.2 kmh 30.30 in1026.1 mb 0.00 in0.0 mm 0.00 in0.0 mm 0.00 in0.0 mm
09:30 PM 73.9°F23.3°C 59.6°F15.3°C 61% 1.6 mph SE2.6 kmh SE 5.4 mph8.7 kmh 30.30 in1026.1 mb 0.00 in0.0 mm 0.00 in0.0 mm 0.00 in0.0 mm
09:35 PM 73.9°F23.3°C 59.6°F15.3°C 61% 1.6 mph S2.6 kmh S 2.2 mph3.5 kmh 29.85 in1010.8 mb 0.00 in0.0 mm 0.00 in0.0 mm 0.00 in0.0 mm
09:45 PM 73.4°F23.0°C 59.6°F15.3°C 62% 3.1 mph SE5.0 kmh SE 4.5 mph7.2 kmh 30.30 in1026.1 mb 0.00 in0.0 mm 0.00 in0.0 mm 0.00 in0.0 mm
10:00 PM 73.0°F22.8°C 59.7°F15.4°C 63% 2.2 mph SE3.5 kmh SE 4.5 mph7.2 kmh 30.30 in1026.1 mb 0.00 in0.0 mm 0.00 in0.0 mm 0.00 in0.0 mm
10:05 PM 73.0°F22.8°C 59.7°F15.4°C 63% 3.1 mph SE5.0 kmh SE 3.8 mph6.1 kmh 29.85 in1010.8 mb 0.00 in0.0 mm 0.00 in0.0 mm 0.00 in0.0 mm
10:15 PM 72.7°F22.6°C 59.4°F15.2°C 63% 3.1 mph SE5.0 kmh SE 4.5 mph7.2 kmh 30.30 in1026.1 mb 0.00 in0.0 mm 0.00 in0.0 mm 0.00 in0.0 mm
10:30 PM 72.5°F22.5°C 59.6°F15.3°C 64% 2.2 mph ESE3.5 kmh ESE 5.4 mph8.7 kmh 30.29 in1025.7 mb 0.00 in0.0 mm 0.00 in0.0 mm 0.00 in0.0 mm
10:35 PM 72.5°F22.5°C 59.6°F15.3°C 64% 3.1 mph SE5.0 kmh SE 3.8 mph6.1 kmh 29.85 in1010.8 mb 0.00 in0.0 mm 0.00 in0.0 mm 0.00 in0.0 mm
10:45 PM 72.1°F22.3°C 61.0°F16.1°C 68% 1.6 mph SE2.6 kmh SE 3.8 mph6.1 kmh 30.30 in1026.1 mb 0.00 in0.0 mm 0.00 in0.0 mm 0.00 in0.0 mm
11:00 PM 71.8°F22.1°C 61.1°F16.2°C 69% 2.2 mph SE3.5 kmh SE 4.5 mph7.2 kmh 30.29 in1025.7 mb 0.00 in0.0 mm 0.00 in0.0 mm 0.00 in0.0 mm
11:05 PM 71.8°F22.1°C 61.1°F16.2°C 69% 3.1 mph SE5.0 kmh SE 4.5 mph7.2 kmh 29.85 in1010.8 mb 0.00 in0.0 mm 0.00 in0.0 mm 0.00 in0.0 mm
11:15 PM 71.6°F22.0°C 60.9°F16.1°C 69% 1.6 mph SE2.6 kmh SE 4.5 mph7.2 kmh 30.29 in1025.7 mb 0.00 in0.0 mm 0.00 in0.0 mm 0.00 in0.0 mm
11:30 PM 71.4°F21.9°C 61.1°F16.2°C 70% 1.6 mph ESE2.6 kmh ESE 4.5 mph7.2 kmh 30.29 in1025.7 mb 0.00 in0.0 mm 0.00 in0.0 mm 0.00 in0.0 mm
11:35 PM 71.4°F21.9°C 61.1°F16.2°C 70% 2.2 mph E3.5 kmh E 3.1 mph5.0 kmh 29.85 in1010.8 mb 0.00 in0.0 mm 0.00 in0.0 mm 0.00 in0.0 mm
11:45 PM 71.1°F21.7°C 60.8°F16.0°C 70% 2.2 mph ESE3.5 kmh ESE 4.5 mph7.2 kmh 30.29 in1025.7 mb 0.00 in0.0 mm 0.00 in0.0 mm 0.00 in0.0 mm